createdAt,value
2023-01-09T00:00:04.763Z,98744.78
2023-01-09T00:02:33.753Z,98731.03
2023-01-09T00:05:01.870Z,98730.06
2023-01-09T00:07:30.322Z,98732.44
2023-01-09T00:09:59.722Z,98710.72
2023-01-09T00:12:28.381Z,98717.41
2023-01-09T00:14:56.814Z,98725.28
2023-01-09T00:17:28.336Z,98720.72
2023-01-09T00:19:57.349Z,98677.25
2023-01-09T00:22:25.699Z,98708.53
2023-01-09T00:24:53.980Z,98650.03
2023-01-09T00:27:22.044Z,98704.34
2023-01-09T00:29:50.912Z,98703.97
2023-01-09T00:32:20.922Z,98680.06
2023-01-09T00:34:50.151Z,98692.63
2023-01-09T00:37:18.469Z,98698.22
2023-01-09T00:39:46.843Z,98698.09
2023-01-09T00:42:27.056Z,98688.66
2023-01-09T00:45:01.790Z,98691.31
2023-01-09T00:47:40.659Z,98679.69
2023-01-09T00:50:16.700Z,98669.72
2023-01-09T00:52:46.661Z,98655.66
2023-01-09T00:55:15.702Z,98612.09
2023-01-09T00:57:44.824Z,98629.50
2023-01-09T01:00:13.681Z,98651.56
2023-01-09T01:02:42.138Z,98649.41
2023-01-09T01:05:32.389Z,98609.44
2023-01-09T01:08:00.917Z,98640.19
2023-01-09T01:10:29.204Z,98642.69
2023-01-09T01:12:57.998Z,98595.31
2023-01-09T01:15:29.518Z,98649.13
2023-01-09T01:17:58.239Z,98640.28
2023-01-09T01:20:28.006Z,98622.16
2023-01-09T01:22:56.273Z,98636.56
2023-01-09T01:25:24.701Z,98620.63
2023-01-09T01:27:53.507Z,98583.91
2023-01-09T01:30:22.238Z,98598.72
2023-01-09T01:32:50.662Z,98569.53
2023-01-09T01:35:19.750Z,98596.00
2023-01-09T01:37:49.908Z,98606.13
2023-01-09T01:40:18.100Z,98595.16
2023-01-09T01:42:51.838Z,98604.78
2023-01-09T01:45:29.664Z,98596.19
2023-01-09T01:48:07.108Z,98551.84
2023-01-09T01:50:59.567Z,98544.03
2023-01-09T01:53:55.941Z,98551.03
2023-01-09T01:56:44.284Z,98582.63
2023-01-09T01:59:31.726Z,98585.13
2023-01-09T02:02:02.628Z,98574.59
2023-01-09T02:04:35.942Z,98509.66
2023-01-09T02:07:09.981Z,98577.00
2023-01-09T02:09:42.103Z,98527.22
2023-01-09T02:12:26.592Z,98564.78
2023-01-09T02:15:13.783Z,98518.66
2023-01-09T02:18:19.838Z,98531.00
2023-01-09T02:21:13.413Z,98557.00
2023-01-09T02:24:32.276Z,98550.91
2023-01-09T02:28:03.567Z,98502.00
2023-01-09T02:30:56.849Z,98542.44
2023-01-09T02:33:49.438Z,98536.72
2023-01-09T02:36:52.582Z,98496.00
2023-01-09T02:39:43.238Z,98548.81
2023-01-09T02:42:18.397Z,98534.75
2023-01-09T02:44:47.146Z,98532.38
2023-01-09T02:47:22.133Z,98550.53
2023-01-09T02:49:56.739Z,98507.41
2023-01-09T02:52:49.413Z,98548.03
2023-01-09T02:55:54.083Z,98555.09
2023-01-09T02:59:26.979Z,98553.88
2023-01-09T03:02:44.668Z,98555.53
2023-01-09T03:05:45.521Z,98543.28
2023-01-09T03:08:23.647Z,98529.81
2023-01-09T03:10:59.568Z,98537.88
2023-01-09T03:13:34.590Z,98484.22
2023-01-09T03:16:08.420Z,98526.78
2023-01-09T03:18:39.041Z,98521.66
2023-01-09T03:21:12.525Z,98525.84
2023-01-09T03:24:13.210Z,98498.50
2023-01-09T03:26:41.700Z,98487.53
2023-01-09T03:29:10.713Z,98488.59
2023-01-09T03:31:39.115Z,98483.72
2023-01-09T03:34:07.476Z,98435.59
2023-01-09T03:36:35.592Z,98468.00
2023-01-09T03:39:03.783Z,98444.00
2023-01-09T03:41:32.890Z,98427.81
2023-01-09T03:44:00.859Z,98480.56
2023-01-09T03:46:29.320Z,98477.00
2023-01-09T03:48:58.379Z,98473.78
2023-01-09T03:51:26.434Z,98445.28
2023-01-09T03:53:54.948Z,98460.19
2023-01-09T03:56:23.077Z,98469.63
2023-01-09T03:58:53.243Z,98333.09
2023-01-09T04:01:21.689Z,98452.03
2023-01-09T04:03:50.323Z,98476.97
2023-01-09T04:06:18.799Z,98486.94
2023-01-09T04:08:47.168Z,98447.78
2023-01-09T04:11:17.772Z,98487.34
2023-01-09T04:13:45.956Z,98451.56
2023-01-09T04:16:14.658Z,98472.06
2023-01-09T04:18:43.261Z,98461.22
2023-01-09T04:21:11.372Z,98464.09
2023-01-09T04:23:39.536Z,98440.88
2023-01-09T04:26:08.453Z,98439.75
2023-01-09T04:28:36.869Z,98493.28
2023-01-09T04:31:05.505Z,98476.31
2023-01-09T04:33:33.711Z,98488.97
2023-01-09T04:36:01.880Z,98492.41
2023-01-09T04:38:30.392Z,98478.94
2023-01-09T04:40:58.800Z,98481.88
2023-01-09T04:43:27.397Z,98481.22
2023-01-09T04:45:56.728Z,98486.06
2023-01-09T04:48:25.685Z,98433.31
2023-01-09T04:50:53.808Z,98440.13
2023-01-09T04:53:23.335Z,98484.06
2023-01-09T04:55:52.116Z,98468.00
2023-01-09T04:58:21.989Z,98481.25
2023-01-09T05:00:50.400Z,98477.44
2023-01-09T05:03:19.030Z,98469.09
2023-01-09T05:05:47.126Z,98477.13
2023-01-09T05:08:15.449Z,98468.13
2023-01-09T05:10:44.919Z,98474.34
2023-01-09T05:13:13.193Z,98474.75
2023-01-09T05:15:41.639Z,98428.38
2023-01-09T05:18:10.152Z,98475.81
2023-01-09T05:20:38.778Z,98450.31
2023-01-09T05:23:07.611Z,98466.63
2023-01-09T05:25:36.555Z,98411.31
2023-01-09T05:28:05.496Z,98448.63
2023-01-09T05:30:34.251Z,98453.63
2023-01-09T05:33:02.887Z,98459.91
2023-01-09T05:35:31.083Z,98458.84
2023-01-09T05:37:59.628Z,98379.00
2023-01-09T05:40:32.243Z,98433.72
2023-01-09T05:43:07.060Z,98428.59
2023-01-09T05:45:36.276Z,98450.16
2023-01-09T05:48:05.238Z,98446.00
2023-01-09T05:50:33.822Z,98437.53
2023-01-09T05:53:02.517Z,98423.59
2023-01-09T05:55:30.819Z,98416.06
2023-01-09T05:58:00.043Z,98430.03
2023-01-09T06:00:28.590Z,98429.78
2023-01-09T06:02:57.432Z,98380.81
2023-01-09T06:05:26.140Z,98435.59
2023-01-09T06:07:54.559Z,98408.16
2023-01-09T06:10:23.106Z,98426.41
2023-01-09T06:12:55.054Z,98426.28
2023-01-09T06:15:23.469Z,98427.00
2023-01-09T06:17:52.072Z,98402.19
2023-01-09T06:20:21.031Z,98444.66
2023-01-09T06:22:52.280Z,98388.59
2023-01-09T06:25:20.879Z,98424.34
2023-01-09T06:27:50.639Z,98432.91
2023-01-09T06:30:20.430Z,98388.94
2023-01-09T06:32:50.417Z,98422.38
2023-01-09T06:35:21.416Z,98431.69
2023-01-09T06:37:50.347Z,98416.28
2023-01-09T06:40:20.353Z,98431.16
2023-01-09T06:42:50.519Z,98437.63
2023-01-09T06:45:19.440Z,98407.50
2023-01-09T06:47:48.676Z,98432.16
2023-01-09T06:50:17.788Z,98434.50
2023-01-09T06:52:46.323Z,98429.06
2023-01-09T06:55:14.978Z,98405.56
2023-01-09T06:57:44.315Z,98393.06
2023-01-09T07:00:14.672Z,98437.41
2023-01-09T07:02:43.205Z,98392.59
2023-01-09T07:05:12.370Z,98432.00
2023-01-09T07:07:41.654Z,98436.16
2023-01-09T07:10:11.650Z,98410.19
2023-01-09T07:12:41.833Z,98397.75
2023-01-09T07:15:13.830Z,98424.44
2023-01-09T07:17:42.136Z,98421.94
2023-01-09T07:20:12.420Z,98383.91
2023-01-09T07:22:40.739Z,98432.03
2023-01-09T07:25:09.776Z,98369.09
2023-01-09T07:27:38.419Z,98432.75
2023-01-09T07:30:10.737Z,98429.97
2023-01-09T07:32:41.463Z,98394.94
2023-01-09T07:35:11.193Z,98443.75
2023-01-09T07:37:40.448Z,98434.97
2023-01-09T07:40:10.325Z,98386.44
2023-01-09T07:42:38.972Z,98414.81
2023-01-09T07:45:09.484Z,98406.53
2023-01-09T07:47:39.888Z,98429.59
2023-01-09T07:50:13.480Z,98395.59
2023-01-09T07:52:44.529Z,98433.28
2023-01-09T07:55:15.014Z,98376.19
2023-01-09T07:57:49.997Z,98426.91
2023-01-09T08:00:21.368Z,98388.16
2023-01-09T08:02:54.451Z,98434.13
2023-01-09T08:05:22.848Z,98353.41
2023-01-09T08:07:52.487Z,98426.66
2023-01-09T08:10:21.311Z,98421.94
2023-01-09T08:12:50.157Z,98374.34
2023-01-09T08:15:20.080Z,98421.31
2023-01-09T08:17:49.035Z,98416.88
2023-01-09T08:20:21.253Z,98381.94
2023-01-09T08:22:51.360Z,98410.44
2023-01-09T08:25:21.462Z,98360.34
2023-01-09T08:27:49.978Z,98402.53
2023-01-09T08:30:20.419Z,98364.78
2023-01-09T08:32:54.116Z,98403.66
2023-01-09T08:35:23.019Z,98406.13
2023-01-09T08:37:51.394Z,98417.25
2023-01-09T08:40:20.447Z,98397.25
2023-01-09T08:43:08.026Z,98357.84
2023-01-09T08:45:55.994Z,98363.13
2023-01-09T08:48:25.061Z,98372.56
2023-01-09T08:50:54.548Z,98263.56
2023-01-09T08:53:22.776Z,98386.44
2023-01-09T08:55:51.773Z,98380.03
2023-01-09T08:58:20.735Z,98394.16
2023-01-09T09:00:49.177Z,98390.84
2023-01-09T09:03:18.022Z,98353.53
2023-01-09T09:05:46.974Z,98333.84
2023-01-09T09:08:16.761Z,98382.50
2023-01-09T09:10:45.775Z,98376.94
2023-01-09T09:13:14.328Z,98369.72
2023-01-09T09:15:42.698Z,98376.25
2023-01-09T09:18:11.510Z,98375.81
2023-01-09T09:20:40.236Z,98366.91
2023-01-09T09:23:09.015Z,98318.91
2023-01-09T09:25:38.914Z,98364.06
2023-01-09T09:28:08.447Z,98358.22
2023-01-09T09:30:39.603Z,98360.16
2023-01-09T09:33:08.440Z,98315.72
2023-01-09T09:35:37.606Z,98305.41
2023-01-09T09:38:06.372Z,98336.66
2023-01-09T09:41:01.600Z,98316.41
2023-01-09T09:44:24.039Z,98340.78
2023-01-09T09:47:04.657Z,98326.09
2023-01-09T09:50:01.066Z,98332.19
2023-01-09T09:52:46.436Z,98282.56
2023-01-09T09:55:42.629Z,98291.03
2023-01-09T09:58:29.077Z,98324.94
2023-01-09T10:01:01.483Z,98330.81
2023-01-09T10:03:49.366Z,98331.34
2023-01-09T10:06:34.867Z,98329.22
2023-01-09T10:09:33.121Z,98268.19
2023-01-09T10:12:52.827Z,98314.75
2023-01-09T10:15:42.961Z,98314.81
2023-01-09T10:18:58.265Z,98306.06
2023-01-09T10:21:46.902Z,98261.44
2023-01-09T10:24:21.362Z,98309.75
2023-01-09T10:26:54.608Z,98270.13
2023-01-09T10:30:26.920Z,98294.97
2023-01-09T10:33:15.676Z,98305.97
2023-01-09T10:36:02.107Z,98306.59
2023-01-09T10:38:38.375Z,98295.81
2023-01-09T10:41:21.758Z,98306.38
2023-01-09T10:44:15.547Z,98309.09
2023-01-09T10:47:09.619Z,98316.78
2023-01-09T10:49:40.047Z,98292.03
2023-01-09T10:52:20.697Z,98304.03
2023-01-09T10:55:32.713Z,98299.53
2023-01-09T10:58:18.187Z,98283.63
2023-01-09T11:00:49.437Z,98291.50
2023-01-09T11:03:24.305Z,98287.75
2023-01-09T11:05:56.950Z,98289.69
2023-01-09T11:08:53.971Z,98282.44
2023-01-09T11:11:38.805Z,98277.63
2023-01-09T11:14:27.980Z,98290.34
2023-01-09T11:17:03.839Z,98300.09
2023-01-09T11:19:35.892Z,98290.50
2023-01-09T11:22:17.611Z,98296.34
2023-01-09T11:24:46.835Z,98299.09
2023-01-09T11:27:14.621Z,98295.56
2023-01-09T11:29:43.705Z,98246.06
2023-01-09T11:32:24.532Z,98253.41
2023-01-09T11:34:52.632Z,98297.16
2023-01-09T11:37:29.958Z,98297.38
2023-01-09T11:40:00.988Z,98243.22
2023-01-09T11:42:49.036Z,98252.47
2023-01-09T11:45:19.271Z,98288.84
2023-01-09T11:47:48.010Z,98285.53
2023-01-09T11:50:27.220Z,98239.09
2023-01-09T11:53:17.217Z,98275.78
2023-01-09T11:55:50.248Z,98270.19
2023-01-09T11:58:23.003Z,98262.72
2023-01-09T12:01:24.948Z,98244.16
2023-01-09T12:04:38.399Z,98214.78
2023-01-09T12:08:06.232Z,98199.03
2023-01-09T12:11:11.880Z,98251.56
2023-01-09T12:14:11.739Z,98253.56
2023-01-09T12:17:02.711Z,98229.88
2023-01-09T12:20:10.851Z,98254.78
2023-01-09T12:23:10.570Z,98261.03
2023-01-09T12:26:12.385Z,98249.50
2023-01-09T12:29:26.005Z,98250.63
2023-01-09T12:32:36.176Z,98192.59
2023-01-09T12:35:55.072Z,98203.22
2023-01-09T12:38:51.641Z,98207.22
2023-01-09T12:41:47.288Z,98233.13
2023-01-09T12:44:43.888Z,98244.22
2023-01-09T12:47:47.448Z,98229.72
2023-01-09T12:50:27.757Z,98240.34
2023-01-09T12:53:26.453Z,98233.09
2023-01-09T12:56:36.413Z,98218.72
2023-01-09T12:59:32.751Z,98222.72
2023-01-09T13:02:13.643Z,98169.84
2023-01-09T13:04:58.132Z,98211.81
2023-01-09T13:08:15.286Z,98201.09
2023-01-09T13:10:49.522Z,98204.78
2023-01-09T13:13:46.300Z,98208.78
2023-01-09T13:16:29.244Z,98198.91
2023-01-09T13:19:11.596Z,98190.66
2023-01-09T13:21:41.669Z,98167.47
2023-01-09T13:24:39.116Z,98132.06
2023-01-09T13:27:19.866Z,98179.81
2023-01-09T13:30:17.180Z,98180.50
2023-01-09T13:33:29.013Z,98170.69
2023-01-09T13:36:00.368Z,98169.06
2023-01-09T13:38:32.003Z,98168.56
2023-01-09T13:41:32.858Z,98079.06
2023-01-09T13:44:26.454Z,98125.34
2023-01-09T13:46:59.212Z,98163.97
2023-01-09T13:49:59.810Z,98161.31
2023-01-09T13:52:42.728Z,98155.84
2023-01-09T13:55:17.213Z,98152.22
2023-01-09T13:58:14.910Z,98162.47
2023-01-09T14:00:43.816Z,98154.38
2023-01-09T14:03:45.209Z,98122.38
2023-01-09T14:06:16.973Z,98106.78
2023-01-09T14:08:48.012Z,98109.09
2023-01-09T14:11:23.347Z,98152.38
2023-01-09T14:14:03.158Z,98048.94
2023-01-09T14:16:32.682Z,98156.16
2023-01-09T14:19:19.707Z,98129.50
2023-01-09T14:21:57.009Z,98143.44
2023-01-09T14:24:42.818Z,98146.53
2023-01-09T14:27:54.815Z,98153.66
2023-01-09T14:31:02.293Z,98158.13
2023-01-09T14:33:32.981Z,98155.63
2023-01-09T14:36:11.436Z,98156.75
2023-01-09T14:39:04.129Z,98125.91
2023-01-09T14:42:06.641Z,98144.97
2023-01-09T14:44:59.965Z,98126.53
2023-01-09T14:47:42.016Z,98164.16
2023-01-09T14:50:48.530Z,98168.59
2023-01-09T14:53:31.617Z,98161.47
2023-01-09T14:56:24.102Z,98180.50
2023-01-09T14:59:14.812Z,98166.41
2023-01-09T15:01:49.672Z,98182.94
2023-01-09T15:04:39.161Z,98180.28
2023-01-09T15:07:08.390Z,98180.00
2023-01-09T15:10:03.927Z,98182.22
2023-01-09T15:12:34.281Z,98181.25
2023-01-09T15:15:04.950Z,98138.63
2023-01-09T15:17:36.927Z,98151.38
2023-01-09T15:20:08.594Z,98179.41
2023-01-09T15:22:38.522Z,98182.22
2023-01-09T15:25:38.993Z,98165.03
2023-01-09T15:28:32.871Z,98148.63
2023-01-09T15:31:11.900Z,98137.69
2023-01-09T15:33:42.627Z,98186.44
2023-01-09T15:36:22.831Z,98180.63
2023-01-09T15:38:52.933Z,98186.44
2023-01-09T15:41:49.152Z,98186.44
2023-01-09T15:44:29.610Z,98156.44
2023-01-09T15:46:59.966Z,98192.41
2023-01-09T15:49:28.627Z,98190.41
2023-01-09T15:51:57.383Z,98192.75
2023-01-09T15:54:32.057Z,98189.31
2023-01-09T15:57:26.120Z,98200.72
2023-01-09T16:00:23.186Z,98177.91
2023-01-09T16:03:12.474Z,98181.03
2023-01-09T16:06:08.981Z,98131.41
2023-01-09T16:08:54.236Z,98133.75
2023-01-09T16:11:50.203Z,98077.00
2023-01-09T16:14:38.803Z,98174.47
2023-01-09T16:17:16.039Z,98179.13
2023-01-09T16:19:55.771Z,98196.94
2023-01-09T16:22:25.625Z,98138.78
2023-01-09T16:24:58.356Z,98178.38
2023-01-09T16:27:34.360Z,98157.44
2023-01-09T16:30:05.972Z,98137.38
2023-01-09T16:32:48.002Z,98186.78
2023-01-09T16:35:20.264Z,98183.94
2023-01-09T16:37:48.941Z,98179.16
2023-01-09T16:40:17.251Z,98189.75
2023-01-09T16:43:01.750Z,98183.50
2023-01-09T16:45:42.098Z,98205.69
2023-01-09T16:48:22.022Z,98206.38
2023-01-09T16:50:50.752Z,98210.69
2023-01-09T16:53:24.480Z,98211.97
2023-01-09T16:55:54.496Z,98194.00
2023-01-09T16:58:30.960Z,98218.25
2023-01-09T17:01:00.051Z,98204.25
2023-01-09T17:03:28.433Z,98215.88
2023-01-09T17:06:01.418Z,98218.84
2023-01-09T17:08:33.195Z,98217.56
2023-01-09T17:11:01.796Z,98221.53
2023-01-09T17:13:30.440Z,98216.25
2023-01-09T17:16:00.140Z,98229.19
2023-01-09T17:18:30.471Z,98217.41
2023-01-09T17:20:59.511Z,98219.59
2023-01-09T17:23:29.026Z,98204.50
2023-01-09T17:26:19.537Z,98217.47
2023-01-09T17:28:51.958Z,98225.56
2023-01-09T17:31:20.646Z,98228.81
2023-01-09T17:33:49.853Z,98226.31
2023-01-09T17:36:35.076Z,98213.56
2023-01-09T17:39:03.939Z,98149.78
2023-01-09T17:41:33.849Z,98174.72
2023-01-09T17:44:02.451Z,98227.81
2023-01-09T17:46:36.801Z,98226.94
2023-01-09T17:49:08.013Z,98196.28
2023-01-09T17:51:37.740Z,98233.63
2023-01-09T17:54:06.269Z,98242.09
2023-01-09T17:56:39.721Z,98247.59
2023-01-09T17:59:10.202Z,98245.78
2023-01-09T18:01:38.444Z,98242.97
2023-01-09T18:04:07.110Z,98223.06
2023-01-09T18:06:39.674Z,98204.78
2023-01-09T18:09:13.628Z,98234.16
2023-01-09T18:11:45.090Z,98229.19
2023-01-09T18:14:14.152Z,98249.13
2023-01-09T18:16:44.750Z,98243.81
2023-01-09T18:19:13.611Z,98209.19
2023-01-09T18:21:42.573Z,98210.06
2023-01-09T18:24:11.345Z,98230.84
2023-01-09T18:26:39.979Z,98235.81
2023-01-09T18:29:09.942Z,98194.91
2023-01-09T18:31:38.761Z,98242.09
2023-01-09T18:34:07.905Z,98241.09
2023-01-09T18:36:36.841Z,98224.72
2023-01-09T18:39:07.393Z,98227.50
2023-01-09T18:41:36.181Z,98229.31
2023-01-09T18:44:06.339Z,98224.50
2023-01-09T18:46:35.207Z,98231.97
2023-01-09T18:49:05.696Z,98245.34
2023-01-09T18:51:39.114Z,98207.97
2023-01-09T18:54:09.078Z,98241.03
2023-01-09T18:56:38.087Z,98238.41
2023-01-09T18:59:07.128Z,98249.81
2023-01-09T19:01:36.400Z,98233.72
2023-01-09T19:04:05.413Z,98242.31
2023-01-09T19:06:34.078Z,98201.66
2023-01-09T19:09:02.764Z,98246.94
2023-01-09T19:11:30.995Z,98234.34
2023-01-09T19:14:00.511Z,98233.66
2023-01-09T19:16:28.996Z,98247.91
2023-01-09T19:18:58.617Z,98222.81
2023-01-09T19:21:27.119Z,98256.91
2023-01-09T19:23:55.603Z,98213.41
2023-01-09T19:26:26.947Z,98261.19
2023-01-09T19:28:58.129Z,98248.88
2023-01-09T19:31:29.349Z,98259.31
2023-01-09T19:33:59.020Z,98260.28
2023-01-09T19:36:29.105Z,98257.44
2023-01-09T19:39:02.577Z,98260.06
2023-01-09T19:41:31.125Z,98272.53
2023-01-09T19:44:03.368Z,98277.31
2023-01-09T19:46:33.948Z,98145.25
2023-01-09T19:49:05.164Z,98282.72
2023-01-09T19:51:35.297Z,98277.59
2023-01-09T19:56:41.082Z,98252.38
2023-01-09T19:59:12.126Z,98245.59
2023-01-09T20:01:45.541Z,98272.00
2023-01-09T20:04:15.448Z,98285.88
2023-01-09T20:06:48.288Z,98297.47
2023-01-09T20:09:27.681Z,98288.16
2023-01-09T20:11:56.717Z,98289.31
2023-01-09T20:14:25.347Z,98272.97
2023-01-09T20:16:55.772Z,98305.31
2023-01-09T20:19:24.515Z,98297.41
2023-01-09T20:21:53.963Z,98284.34
2023-01-09T20:24:22.046Z,98298.19
2023-01-09T20:26:51.388Z,98253.28
2023-01-09T20:29:20.789Z,98280.53
2023-01-09T20:31:50.755Z,98290.00
2023-01-09T20:34:19.747Z,98301.78
2023-01-09T20:36:48.548Z,98298.66
2023-01-09T20:39:17.676Z,98297.31
2023-01-09T20:41:46.627Z,98272.38
2023-01-09T20:44:16.404Z,98269.53
2023-01-09T20:46:49.959Z,98278.22
2023-01-09T20:49:18.929Z,98252.63
2023-01-09T20:51:52.958Z,98286.50
2023-01-09T20:54:22.954Z,98309.41
2023-01-09T20:56:51.838Z,98301.09
2023-01-09T20:59:22.468Z,98281.38
2023-01-09T21:01:51.893Z,98304.66
2023-01-09T21:04:20.735Z,98303.97
2023-01-09T21:06:50.358Z,98285.53
2023-01-09T21:09:19.383Z,98313.69
2023-01-09T21:11:47.905Z,98280.94
2023-01-09T21:14:16.745Z,98323.03
2023-01-09T21:16:53.853Z,98320.28
2023-01-09T21:19:23.793Z,98326.31
2023-01-09T21:21:53.439Z,98327.81
2023-01-09T21:24:22.079Z,98290.72
2023-01-09T21:26:51.142Z,98289.78
2023-01-09T21:29:19.782Z,98264.69
2023-01-09T21:31:48.182Z,98337.59
2023-01-09T21:34:20.336Z,98343.53
2023-01-09T21:36:49.075Z,98302.16
2023-01-09T21:39:20.967Z,98308.50
2023-01-09T21:42:08.391Z,98342.72
2023-01-09T21:44:55.799Z,98334.84
2023-01-09T21:47:24.492Z,98313.25
2023-01-09T21:49:52.861Z,98334.41
2023-01-09T21:52:21.277Z,98353.50
2023-01-09T21:54:50.642Z,98282.66
2023-01-09T21:57:20.586Z,98306.97
2023-01-09T21:59:49.314Z,98354.41
2023-01-09T22:02:17.897Z,98356.38
2023-01-09T22:04:49.547Z,98360.00
2023-01-09T22:07:17.877Z,98355.84
2023-01-09T22:09:46.111Z,98352.97
2023-01-09T22:12:14.215Z,98356.59
2023-01-09T22:14:42.900Z,98358.72
2023-01-09T22:17:11.008Z,98362.09
2023-01-09T22:19:39.431Z,98363.75
2023-01-09T22:22:09.003Z,98333.81
2023-01-09T22:24:37.381Z,98369.59
2023-01-09T22:27:05.609Z,98373.50
2023-01-09T22:29:34.320Z,98368.22
2023-01-09T22:32:02.351Z,98375.59
2023-01-09T22:34:31.199Z,98393.56
2023-01-09T22:37:00.519Z,98380.50
2023-01-09T22:39:28.985Z,98387.59
2023-01-09T22:41:59.243Z,98341.53
2023-01-09T22:44:27.695Z,98387.59
2023-01-09T22:46:57.473Z,98353.47
2023-01-09T22:49:29.951Z,98387.59
2023-01-09T22:51:59.407Z,98392.50
2023-01-09T22:54:28.050Z,98416.09
2023-01-09T22:56:56.853Z,98409.13
2023-01-09T22:59:27.561Z,98410.25
2023-01-09T23:01:57.911Z,98289.81
2023-01-09T23:04:26.866Z,98398.63
2023-01-09T23:06:55.588Z,98402.19
2023-01-09T23:09:25.733Z,98402.41
2023-01-09T23:12:03.864Z,98400.66
2023-01-09T23:14:36.060Z,98419.91
2023-01-09T23:17:10.013Z,98413.97
2023-01-09T23:19:38.596Z,98413.28
2023-01-09T23:22:07.310Z,98412.44
2023-01-09T23:24:35.514Z,98412.59
2023-01-09T23:27:04.650Z,98388.47
2023-01-09T23:29:33.422Z,98357.59
2023-01-09T23:32:07.903Z,98416.41
2023-01-09T23:34:36.576Z,98420.72
2023-01-09T23:37:09.169Z,98417.09
2023-01-09T23:39:37.477Z,98415.53
2023-01-09T23:42:24.992Z,98410.25
2023-01-09T23:44:53.755Z,98358.28
2023-01-09T23:47:22.447Z,98416.81
2023-01-09T23:49:50.615Z,98422.09
2023-01-09T23:52:19.377Z,98425.59
2023-01-09T23:54:47.439Z,98417.41
2023-01-09T23:57:15.789Z,98421.56
2023-01-09T23:59:44.601Z,98413.94
